sensor_id;sensor_type;location;lat;lon;timestamp;pressure;altitude;pressure_sealevel;temperature;humidity
25130;BME280;13308;50.860;13.664;2024-02-15T06:37:05;97117.66;;;10.16;100.00
25130;BME280;13308;50.860;13.664;2024-02-15T06:39:49;97124.38;;;10.15;100.00
25130;BME280;13308;50.860;13.664;2024-02-15T06:42:16;97119.22;;;10.17;100.00
25130;BME280;13308;50.860;13.664;2024-02-15T06:44:47;97125.50;;;10.21;100.00
25130;BME280;13308;50.860;13.664;2024-02-15T06:47:13;97127.03;;;10.29;100.00
25130;BME280;13308;50.860;13.664;2024-02-15T06:49:42;97122.22;;;10.33;100.00
25130;BME280;13308;50.860;13.664;2024-02-15T06:52:09;97127.03;;;10.29;100.00
25130;BME280;13308;50.860;13.664;2024-02-15T06:54:38;97122.22;;;10.33;100.00
25130;BME280;13308;50.860;13.664;2024-02-15T06:57:04;97128.66;;;10.23;100.00
25130;BME280;13308;50.860;13.664;2024-02-15T06:59:30;97123.88;;;10.27;100.00
25130;BME280;13308;50.860;13.664;2024-02-15T07:01:57;97135.66;;;10.31;100.00
25130;BME280;13308;50.860;13.664;2024-02-15T07:04:22;97128.59;;;10.30;100.00
25130;BME280;13308;50.860;13.664;2024-02-15T07:06:51;97122.69;;;10.28;100.00
25130;BME280;13308;50.860;13.664;2024-02-15T07:09:17;97126.94;;;10.36;100.00
25130;BME280;13308;50.860;13.664;2024-02-15T07:11:45;97127.69;;;10.40;100.00
25130;BME280;13308;50.860;13.664;2024-02-15T07:14:14;97122.94;;;10.41;100.00
25130;BME280;13308;50.860;13.664;2024-02-15T07:16:44;97124.47;;;10.45;100.00
25130;BME280;13308;50.860;13.664;2024-02-15T07:19:09;97123.66;;;10.48;100.00
25130;BME280;13308;50.860;13.664;2024-02-15T07:21:34;97112.56;;;10.55;100.00
25130;BME280;13308;50.860;13.664;2024-02-15T07:24:01;97118.88;;;10.52;100.00
25130;BME280;13308;50.860;13.664;2024-02-15T07:26:26;97116.44;;;10.61;100.00
25130;BME280;13308;50.860;13.664;2024-02-15T07:28:53;97118.75;;;10.66;100.00
25130;BME280;13308;50.860;13.664;2024-02-15T07:31:22;97113.19;;;10.70;100.00
25130;BME280;13308;50.860;13.664;2024-02-15T07:33:50;97111.41;;;10.86;100.00
25130;BME280;13308;50.860;13.664;2024-02-15T07:36:22;97123.19;;;10.90;100.00
25130;BME280;13308;50.860;13.664;2024-02-15T07:38:48;97114.13;;;10.90;100.00
25130;BME280;13308;50.860;13.664;2024-02-15T07:41:15;97125.91;;;10.94;100.00
25130;BME280;13308;50.860;13.664;2024-02-15T07:43:40;97119.84;;;11.06;100.00
25130;BME280;13308;50.860;13.664;2024-02-15T07:46:06;97125.50;;;10.95;100.00
25130;BME280;13308;50.860;13.664;2024-02-15T07:48:31;97116.72;;;11.00;100.00
25130;BME280;13308;50.860;13.664;2024-02-15T07:50:58;97125.41;;;11.02;100.00
25130;BME280;13308;50.860;13.664;2024-02-15T07:53:24;97127.00;;;11.00;100.00
25130;BME280;13308;50.860;13.664;2024-02-15T07:55:49;97123.75;;;11.08;100.00
25130;BME280;13308;50.860;13.664;2024-02-15T07:58:15;97117.22;;;10.95;100.00
25130;BME280;13308;50.860;13.664;2024-02-15T08:00:44;97115.91;;;11.03;100.00
25130;BME280;13308;50.860;13.664;2024-02-15T08:03:09;97112.59;;;11.15;100.00
25130;BME280;13308;50.860;13.664;2024-02-15T08:05:35;97121.25;;;11.17;100.00
25130;BME280;13308;50.860;13.664;2024-02-15T08:08:02;97109.22;;;11.31;100.00
25130;BME280;13308;50.860;13.664;2024-02-15T08:10:29;97099.56;;;11.46;100.00
25130;BME280;13308;50.860;13.664;2024-02-15T08:12:54;97101.19;;;11.43;100.00
25130;BME280;13308;50.860;13.664;2024-02-15T08:15:23;97098.06;;;11.38;100.00
25130;BME280;13308;50.860;13.664;2024-02-15T08:17:49;97105.59;;;11.37;100.00
25130;BME280;13308;50.860;13.664;2024-02-15T08:20:15;97096.47;;;11.40;100.00
25130;BME280;13308;50.860;13.664;2024-02-15T08:22:46;97096.81;;;11.42;100.00
25130;BME280;13308;50.860;13.664;2024-02-15T08:25:12;97099.13;;;11.47;100.00
25130;BME280;13308;50.860;13.664;2024-02-15T08:27:41;97090.84;;;11.47;100.00
25130;BME280;13308;50.860;13.664;2024-02-15T08:30:12;97088.00;;;11.54;100.00
25130;BME280;13308;50.860;13.664;2024-02-15T08:32:38;97079.63;;;11.61;100.00
25130;BME280;13308;50.860;13.664;2024-02-15T08:35:05;97084.69;;;11.66;100.00
25130;BME280;13308;50.860;13.664;2024-02-15T08:37:31;97079.38;;;11.75;100.00
25130;BME280;13308;50.860;13.664;2024-02-15T08:39:59;97077.94;;;11.67;100.00
25130;BME280;13308;50.860;13.664;2024-02-15T08:42:25;97086.34;;;11.57;100.00
25130;BME280;13308;50.860;13.664;2024-02-15T08:44:50;97077.69;;;11.55;100.00
25130;BME280;13308;50.860;13.664;2024-02-15T08:47:16;97079.50;;;11.68;100.00
25130;BME280;13308;50.860;13.664;2024-02-15T08:49:41;97077.59;;;11.88;100.00
25130;BME280;13308;50.860;13.664;2024-02-15T08:52:07;97085.75;;;11.95;100.00
25130;BME280;13308;50.860;13.664;2024-02-15T08:54:35;97097.78;;;12.08;100.00
25130;BME280;13308;50.860;13.664;2024-02-15T08:57:04;97099.69;;;12.11;100.00
25130;BME280;13308;50.860;13.664;2024-02-15T08:59:29;97099.56;;;12.18;100.00
25130;BME280;13308;50.860;13.664;2024-02-15T09:01:55;97103.78;;;12.26;100.00
25130;BME280;13308;50.860;13.664;2024-02-15T09:04:21;97104.63;;;12.66;100.00
25130;BME280;13308;50.860;13.664;2024-02-15T09:06:48;97103.91;;;12.81;100.00
25130;BME280;13308;50.860;13.664;2024-02-15T09:09:14;97115.00;;;13.20;100.00
25130;BME280;13308;50.860;13.664;2024-02-15T09:11:39;97107.47;;;13.01;100.00
25130;BME280;13308;50.860;13.664;2024-02-15T09:14:04;97111.25;;;12.91;100.00
25130;BME280;13308;50.860;13.664;2024-02-15T09:16:29;97103.63;;;12.76;100.00
25130;BME280;13308;50.860;13.664;2024-02-15T09:18:56;97107.94;;;12.57;100.00
25130;BME280;13308;50.860;13.664;2024-02-15T09:21:25;97115.59;;;12.50;100.00
25130;BME280;13308;50.860;13.664;2024-02-15T09:23:53;97116.16;;;12.41;100.00
25130;BME280;13308;50.860;13.664;2024-02-15T09:26:18;97115.25;;;12.48;100.00
25130;BME280;13308;50.860;13.664;2024-02-15T09:28:44;97112.84;;;12.69;100.00
25130;BME280;13308;50.860;13.664;2024-02-15T09:31:12;97111.59;;;12.93;100.00
25130;BME280;13308;50.860;13.664;2024-02-15T09:33:39;97110.75;;;13.16;100.00
25130;BME280;13308;50.860;13.664;2024-02-15T09:36:04;97113.16;;;13.14;100.00
25130;BME280;13308;50.860;13.664;2024-02-15T09:38:30;97125.72;;;13.18;100.00
25130;BME280;13308;50.860;13.664;2024-02-15T09:40:55;97122.78;;;13.09;100.00
25130;BME280;13308;50.860;13.664;2024-02-15T09:43:20;97122.03;;;13.25;100.00
25130;BME280;13308;50.860;13.664;2024-02-15T09:45:47;97118.22;;;13.19;100.00
25130;BME280;13308;50.860;13.664;2024-02-15T09:48:13;97129.06;;;13.10;100.00
25130;BME280;13308;50.860;13.664;2024-02-15T09:50:41;97121.34;;;13.01;100.00
25130;BME280;13308;50.860;13.664;2024-02-15T09:53:11;97118.34;;;12.92;100.00
25130;BME280;13308;50.860;13.664;2024-02-15T09:55:39;97127.41;;;12.93;100.00
25130;BME280;13308;50.860;13.664;2024-02-15T09:58:07;97125.56;;;12.86;100.00
25130;BME280;13308;50.860;13.664;2024-02-15T10:00:33;97132.88;;;12.77;100.00
25130;BME280;13308;50.860;13.664;2024-02-15T10:03:00;97133.78;;;12.70;100.00
25130;BME280;13308;50.860;13.664;2024-02-15T10:05:26;97127.97;;;12.65;100.00
25130;BME280;13308;50.860;13.664;2024-02-15T10:07:52;97137.84;;;12.66;100.00
25130;BME280;13308;50.860;13.664;2024-02-15T10:10:19;97129.09;;;12.67;100.00
25130;BME280;13308;50.860;13.664;2024-02-15T10:12:52;97124.47;;;12.61;100.00
25130;BME280;13308;50.860;13.664;2024-02-15T10:15:32;97130.75;;;12.65;100.00
25130;BME280;13308;50.860;13.664;2024-02-15T10:18:07;97133.94;;;12.63;100.00
25130;BME280;13308;50.860;13.664;2024-02-15T10:20:37;97131.31;;;12.76;100.00
25130;BME280;13308;50.860;13.664;2024-02-15T10:23:12;97121.50;;;12.71;100.00
25130;BME280;13308;50.860;13.664;2024-02-15T10:25:39;97127.69;;;12.79;100.00
25130;BME280;13308;50.860;13.664;2024-02-15T10:28:06;97130.47;;;12.79;100.00
25130;BME280;13308;50.860;13.664;2024-02-15T10:30:33;97124.50;;;12.80;100.00
25130;BME280;13308;50.860;13.664;2024-02-15T10:32:59;97112.09;;;12.88;100.00
25130;BME280;13308;50.860;13.664;2024-02-15T10:35:24;97118.22;;;12.99;100.00
25130;BME280;13308;50.860;13.664;2024-02-15T10:37:50;97113.09;;;12.98;100.00
25130;BME280;13308;50.860;13.664;2024-02-15T10:40:20;97111.97;;;12.95;100.00
25130;BME280;13308;50.860;13.664;2024-02-15T10:42:47;97116.69;;;12.95;100.00
25130;BME280;13308;50.860;13.664;2024-02-15T10:45:15;97112.56;;;12.83;100.00
25130;BME280;13308;50.860;13.664;2024-02-15T10:47:44;97104.63;;;12.85;100.00
25130;BME280;13308;50.860;13.664;2024-02-15T10:50:10;97105.13;;;12.80;100.00
25130;BME280;13308;50.860;13.664;2024-02-15T10:52:44;97112.44;;;12.71;100.00
25130;BME280;13308;50.860;13.664;2024-02-15T10:55:14;97112.63;;;12.60;100.00
25130;BME280;13308;50.860;13.664;2024-02-15T10:57:46;97106.41;;;12.56;100.00
25130;BME280;13308;50.860;13.664;2024-02-15T11:00:16;97104.31;;;12.60;100.00
25130;BME280;13308;50.860;13.664;2024-02-15T11:03:02;97095.38;;;12.72;100.00
25130;BME280;13308;50.860;13.664;2024-02-15T11:05:32;97094.91;;;12.77;100.00
25130;BME280;13308;50.860;13.664;2024-02-15T11:08:09;97097.25;;;12.79;100.00
25130;BME280;13308;50.860;13.664;2024-02-15T11:10:38;97095.63;;;12.81;100.00
25130;BME280;13308;50.860;13.664;2024-02-15T11:13:08;97092.84;;;12.81;100.00
25130;BME280;13308;50.860;13.664;2024-02-15T11:15:42;97087.81;;;12.76;100.00
25130;BME280;13308;50.860;13.664;2024-02-15T11:18:10;97094.50;;;12.98;100.00
25130;BME280;13308;50.860;13.664;2024-02-15T11:23:01;97090.38;;;13.06;100.00
25130;BME280;13308;50.860;13.664;2024-02-15T11:25:38;97091.25;;;13.03;100.00
25130;BME280;13308;50.860;13.664;2024-02-15T11:30:48;97084.19;;;12.79;100.00
25130;BME280;13308;50.860;13.664;2024-02-15T11:33:30;97081.44;;;12.60;100.00
25130;BME280;13308;50.860;13.664;2024-02-15T11:36:02;97088.22;;;12.55;100.00
25130;BME280;13308;50.860;13.664;2024-02-15T11:38:30;97092.13;;;12.58;100.00
25130;BME280;13308;50.860;13.664;2024-02-15T11:46:07;97087.97;;;12.89;100.00
25130;BME280;13308;50.860;13.664;2024-02-15T11:48:36;97093.84;;;12.91;100.00
25130;BME280;13308;50.860;13.664;2024-02-15T11:51:04;97086.31;;;12.72;100.00
25130;BME280;13308;50.860;13.664;2024-02-15T11:53:31;97084.81;;;12.67;100.00
25130;BME280;13308;50.860;13.664;2024-02-15T11:56:00;97081.56;;;12.72;100.00
25130;BME280;13308;50.860;13.664;2024-02-15T11:58:25;97073.31;;;12.88;100.00
25130;BME280;13308;50.860;13.664;2024-02-15T12:01:00;97072.38;;;12.98;100.00
25130;BME280;13308;50.860;13.664;2024-02-15T12:03:44;97068.38;;;12.99;100.00
25130;BME280;13308;50.860;13.664;2024-02-15T12:06:27;97069.31;;;13.28;100.00
25130;BME280;13308;50.860;13.664;2024-02-15T12:09:12;97073.44;;;13.56;100.00
25130;BME280;13308;50.860;13.664;2024-02-15T12:11:59;97075.94;;;13.50;100.00
25130;BME280;13308;50.860;13.664;2024-02-15T12:14:42;97070.25;;;13.57;100.00
25130;BME280;13308;50.860;13.664;2024-02-15T12:17:26;97073.53;;;13.68;100.00
25130;BME280;13308;50.860;13.664;2024-02-15T12:20:10;97073.19;;;13.66;100.00
25130;BME280;13308;50.860;13.664;2024-02-15T12:22:42;97074.16;;;13.60;100.00
25130;BME280;13308;50.860;13.664;2024-02-15T12:25:14;97064.69;;;13.73;100.00
25130;BME280;13308;50.860;13.664;2024-02-15T12:27:44;97063.31;;;13.65;100.00
25130;BME280;13308;50.860;13.664;2024-02-15T12:30:13;97058.09;;;13.51;100.00
25130;BME280;13308;50.860;13.664;2024-02-15T12:32:39;97058.28;;;13.60;100.00
25130;BME280;13308;50.860;13.664;2024-02-15T12:37:48;97060.72;;;13.90;100.00
25130;BME280;13308;50.860;13.664;2024-02-15T12:40:20;97045.84;;;14.13;100.00
25130;BME280;13308;50.860;13.664;2024-02-15T12:42:47;97049.44;;;14.29;100.00
25130;BME280;13308;50.860;13.664;2024-02-15T12:45:17;97045.63;;;14.23;100.00
25130;BME280;13308;50.860;13.664;2024-02-15T12:47:50;97052.72;;;14.24;100.00
25130;BME280;13308;50.860;13.664;2024-02-15T12:50:16;97045.63;;;14.07;100.00
25130;BME280;13308;50.860;13.664;2024-02-15T12:52:42;97050.31;;;13.94;100.00
25130;BME280;13308;50.860;13.664;2024-02-15T12:55:19;97046.84;;;13.74;100.00
25130;BME280;13308;50.860;13.664;2024-02-15T12:57:51;97045.28;;;13.73;100.00
25130;BME280;13308;50.860;13.664;2024-02-15T13:00:26;97045.88;;;13.65;100.00
25130;BME280;13308;50.860;13.664;2024-02-15T13:02:58;97041.75;;;13.73;100.00
25130;BME280;13308;50.860;13.664;2024-02-15T13:05:26;97041.22;;;13.78;100.00
25130;BME280;13308;50.860;13.664;2024-02-15T13:07:55;97051.19;;;13.75;100.00
25130;BME280;13308;50.860;13.664;2024-02-15T13:10:21;97047.19;;;13.76;100.00
25130;BME280;13308;50.860;13.664;2024-02-15T13:12:47;97046.00;;;13.77;100.00
25130;BME280;13308;50.860;13.664;2024-02-15T13:15:14;97043.38;;;13.86;100.00
25130;BME280;13308;50.860;13.664;2024-02-15T13:17:44;97037.50;;;13.84;100.00
25130;BME280;13308;50.860;13.664;2024-02-15T13:20:11;97037.81;;;13.86;100.00
25130;BME280;13308;50.860;13.664;2024-02-15T13:22:38;97035.41;;;13.88;100.00
25130;BME280;13308;50.860;13.664;2024-02-15T13:25:08;97036.69;;;14.00;100.00
25130;BME280;13308;50.860;13.664;2024-02-15T13:27:37;97036.34;;;13.98;100.00
25130;BME280;13308;50.860;13.664;2024-02-15T13:30:06;97040.06;;;14.07;100.00
25130;BME280;13308;50.860;13.664;2024-02-15T13:32:37;97047.69;;;14.03;100.00
25130;BME280;13308;50.860;13.664;2024-02-15T13:35:05;97036.97;;;14.05;100.00
25130;BME280;13308;50.860;13.664;2024-02-15T13:37:40;97040.06;;;14.07;100.00
25130;BME280;13308;50.860;13.664;2024-02-15T13:40:06;97026.38;;;14.00;100.00
25130;BME280;13308;50.860;13.664;2024-02-15T13:42:41;97021.56;;;13.88;100.00
25130;BME280;13308;50.860;13.664;2024-02-15T13:45:07;97026.06;;;13.82;100.00
25130;BME280;13308;50.860;13.664;2024-02-15T13:47:39;97032.28;;;13.86;100.00
25130;BME280;13308;50.860;13.664;2024-02-15T13:50:04;97025.53;;;13.87;100.00
25130;BME280;13308;50.860;13.664;2024-02-15T13:52:30;97029.06;;;13.88;100.00
25130;BME280;13308;50.860;13.664;2024-02-15T13:54:56;97031.75;;;13.91;100.00
25130;BME280;13308;50.860;13.664;2024-02-15T13:57:21;97026.41;;;13.84;100.00
25130;BME280;13308;50.860;13.664;2024-02-15T13:59:46;97021.81;;;13.78;100.00
25130;BME280;13308;50.860;13.664;2024-02-15T14:02:12;97023.81;;;13.77;100.00
25130;BME280;13308;50.860;13.664;2024-02-15T14:04:37;97024.13;;;13.79;100.00
25130;BME280;13308;50.860;13.664;2024-02-15T14:07:03;97023.63;;;13.84;100.00
25130;BME280;13308;50.860;13.664;2024-02-15T14:09:28;97023.44;;;13.91;100.00
25130;BME280;13308;50.860;13.664;2024-02-15T14:11:55;97019.28;;;13.99;100.00
25130;BME280;13308;50.860;13.664;2024-02-15T14:14:23;97032.25;;;14.18;100.00
25130;BME280;13308;50.860;13.664;2024-02-15T14:16:48;97029.84;;;14.20;100.00
25130;BME280;13308;50.860;13.664;2024-02-15T14:19:13;97028.19;;;14.23;100.00
25130;BME280;13308;50.860;13.664;2024-02-15T14:21:39;97024.28;;;14.20;100.00
25130;BME280;13308;50.860;13.664;2024-02-15T14:24:07;97024.66;;;14.22;100.00
25130;BME280;13308;50.860;13.664;2024-02-15T14:26:34;97029.75;;;14.24;100.00
25130;BME280;13308;50.860;13.664;2024-02-15T14:28:59;97018.22;;;14.09;100.00
25130;BME280;13308;50.860;13.664;2024-02-15T14:31:28;97018.22;;;14.09;100.00
25130;BME280;13308;50.860;13.664;2024-02-15T14:34:11;97014.16;;;14.14;100.00
25130;BME280;13308;50.860;13.664;2024-02-15T14:36:37;97010.09;;;14.02;100.00
25130;BME280;13308;50.860;13.664;2024-02-15T14:39:02;97001.25;;;13.91;100.00
25130;BME280;13308;50.860;13.664;2024-02-15T14:41:30;97002.75;;;13.96;100.00
25130;BME280;13308;50.860;13.664;2024-02-15T14:43:56;97004.19;;;14.00;100.00
25130;BME280;13308;50.860;13.664;2024-02-15T14:46:21;97006.09;;;14.03;100.00
25130;BME280;13308;50.860;13.664;2024-02-15T14:48:47;97005.94;;;14.10;100.00
25130;BME280;13308;50.860;13.664;2024-02-15T14:51:16;97008.53;;;14.01;100.00
25130;BME280;13308;50.860;13.664;2024-02-15T14:53:44;97009.28;;;14.18;100.00
25130;BME280;13308;50.860;13.664;2024-02-15T14:56:09;97014.59;;;14.12;100.00
25130;BME280;13308;50.860;13.664;2024-02-15T14:58:35;97008.84;;;14.03;100.00
25130;BME280;13308;50.860;13.664;2024-02-15T15:01:00;97004.88;;;14.04;100.00
25130;BME280;13308;50.860;13.664;2024-02-15T15:03:26;97005.25;;;13.90;100.00
25130;BME280;13308;50.860;13.664;2024-02-15T15:05:51;96996.59;;;13.88;100.00
25130;BME280;13308;50.860;13.664;2024-02-15T15:08:35;97000.41;;;13.94;100.00
25130;BME280;13308;50.860;13.664;2024-02-15T15:11:19;97004.72;;;13.95;100.00
25130;BME280;13308;50.860;13.664;2024-02-15T15:14:03;97002.94;;;14.62;100.00
25130;BME280;13308;50.860;13.664;2024-02-15T15:16:29;96997.19;;;14.81;100.00
25130;BME280;13308;50.860;13.664;2024-02-15T15:18:56;97001.88;;;14.84;100.00
25130;BME280;13308;50.860;13.664;2024-02-15T15:21:21;96998.50;;;14.36;100.00
25130;BME280;13308;50.860;13.664;2024-02-15T15:23:48;96996.59;;;13.88;100.00
25130;BME280;13308;50.860;13.664;2024-02-15T15:26:19;96998.53;;;13.75;100.00
25130;BME280;13308;50.860;13.664;2024-02-15T15:28:45;96989.00;;;13.60;100.00
25130;BME280;13308;50.860;13.664;2024-02-15T15:31:10;96999.81;;;13.39;100.00
25130;BME280;13308;50.860;13.664;2024-02-15T15:33:35;97008.84;;;13.07;100.00
25130;BME280;13308;50.860;13.664;2024-02-15T15:36:02;96997.22;;;12.96;100.00
25130;BME280;13308;50.860;13.664;2024-02-15T15:38:28;96997.72;;;12.91;100.00
25130;BME280;13308;50.860;13.664;2024-02-15T15:40:54;96994.03;;;12.78;100.00
25130;BME280;13308;50.860;13.664;2024-02-15T15:43:19;96984.41;;;12.86;100.00
25130;BME280;13308;50.860;13.664;2024-02-15T15:45:45;96985.91;;;12.71;100.00
25130;BME280;13308;50.860;13.664;2024-02-15T15:48:11;96983.72;;;12.63;100.00
25130;BME280;13308;50.860;13.664;2024-02-15T15:50:37;96989.47;;;12.52;100.00
25130;BME280;13308;50.860;13.664;2024-02-15T15:53:03;96979.69;;;12.48;100.00
25130;BME280;13308;50.860;13.664;2024-02-15T15:55:29;96975.28;;;12.50;100.00
25130;BME280;13308;50.860;13.664;2024-02-15T15:57:55;96984.22;;;12.38;100.00
25130;BME280;13308;50.860;13.664;2024-02-15T16:00:21;96990.03;;;12.24;100.00
25130;BME280;13308;50.860;13.664;2024-02-15T16:02:46;96972.66;;;12.24;100.00
25130;BME280;13308;50.860;13.664;2024-02-15T16:05:12;96970.88;;;12.14;100.00
25130;BME280;13308;50.860;13.664;2024-02-15T16:07:38;96968.97;;;12.11;100.00
25130;BME280;13308;50.860;13.664;2024-02-15T16:10:06;96973.72;;;12.10;100.00
25130;BME280;13308;50.860;13.664;2024-02-15T16:12:34;96974.50;;;12.11;100.00
25130;BME280;13308;50.860;13.664;2024-02-15T16:15:00;96965.19;;;12.01;100.00
25130;BME280;13308;50.860;13.664;2024-02-15T16:17:25;96964.50;;;11.97;100.00
25130;BME280;13308;50.860;13.664;2024-02-15T16:19:51;96967.75;;;11.92;100.00
25130;BME280;13308;50.860;13.664;2024-02-15T16:22:16;96965.47;;;11.87;100.00
25130;BME280;13308;50.860;13.664;2024-02-15T16:24:41;96975.88;;;11.80;100.00
25130;BME280;13308;50.860;13.664;2024-02-15T16:27:07;96961.78;;;11.74;100.00
25130;BME280;13308;50.860;13.664;2024-02-15T16:29:32;96966.69;;;11.86;100.00
25130;BME280;13308;50.860;13.664;2024-02-15T16:31:58;96956.84;;;11.85;100.00
25130;BME280;13308;50.860;13.664;2024-02-15T16:34:24;96974.00;;;11.96;100.00
25130;BME280;13308;50.860;13.664;2024-02-15T16:36:49;96976.00;;;11.73;100.00
25130;BME280;13308;50.860;13.664;2024-02-15T16:39:14;96975.81;;;11.83;100.00
25130;BME280;13308;50.860;13.664;2024-02-15T16:41:40;96976.78;;;11.73;100.00
25130;BME280;13308;50.860;13.664;2024-02-15T16:44:07;96987.19;;;11.66;100.00
25130;BME280;13308;50.860;13.664;2024-02-15T16:46:33;96992.03;;;11.58;100.00
25130;BME280;13308;50.860;13.664;2024-02-15T16:48:59;96994.59;;;11.46;100.00
25130;BME280;13308;50.860;13.664;2024-02-15T16:51:25;96994.63;;;11.42;100.00
25130;BME280;13308;50.860;13.664;2024-02-15T16:53:52;96998.44;;;11.29;100.00
25130;BME280;13308;50.860;13.664;2024-02-15T16:56:20;96987.78;;;11.27;100.00
25130;BME280;13308;50.860;13.664;2024-02-15T16:58:50;96993.44;;;11.20;100.00
25130;BME280;13308;50.860;13.664;2024-02-15T17:01:20;96996.91;;;11.24;100.00
25130;BME280;13308;50.860;13.664;2024-02-15T17:03:46;96995.81;;;11.18;100.00
25130;BME280;13308;50.860;13.664;2024-02-15T17:06:13;97004.16;;;11.15;100.00
25130;BME280;13308;50.860;13.664;2024-02-15T17:08:38;96989.34;;;11.28;100.00
25130;BME280;13308;50.860;13.664;2024-02-15T17:11:06;96980.09;;;11.15;100.00
25130;BME280;13308;50.860;13.664;2024-02-15T17:13:31;96977.91;;;11.03;100.00
25130;BME280;13308;50.860;13.664;2024-02-15T17:15:56;96979.69;;;10.90;100.00
25130;BME280;13308;50.860;13.664;2024-02-15T17:18:22;96977.28;;;10.92;100.00
25130;BME280;13308;50.860;13.664;2024-02-15T17:20:47;96980.50;;;10.87;100.00
25130;BME280;13308;50.860;13.664;2024-02-15T17:23:13;96975.25;;;10.70;100.00
25130;BME280;13308;50.860;13.664;2024-02-15T17:25:38;96984.69;;;10.72;100.00
25130;BME280;13308;50.860;13.664;2024-02-15T17:28:05;96987.91;;;10.67;100.00
25130;BME280;13308;50.860;13.664;2024-02-15T17:30:30;96999.09;;;10.57;100.00
25130;BME280;13308;50.860;13.664;2024-02-15T17:32:56;96989.75;;;10.47;100.00
25130;BME280;13308;50.860;13.664;2024-02-15T17:35:21;96983.53;;;10.40;100.00
25130;BME280;13308;50.860;13.664;2024-02-15T17:37:46;96990.66;;;10.37;100.00
25130;BME280;13308;50.860;13.664;2024-02-15T17:40:12;96993.06;;;10.35;100.00
25130;BME280;13308;50.860;13.664;2024-02-15T17:42:39;96995.50;;;10.26;100.00
25130;BME280;13308;50.860;13.664;2024-02-15T17:45:05;97003.47;;;10.21;100.00
25130;BME280;13308;50.860;13.664;2024-02-15T17:47:35;96999.16;;;10.16;100.00
25130;BME280;13308;50.860;13.664;2024-02-15T17:50:00;96988.66;;;10.04;100.00
25130;BME280;13308;50.860;13.664;2024-02-15T17:52:26;96980.81;;;9.99;100.00
25130;BME280;13308;50.860;13.664;2024-02-15T17:54:51;96978.31;;;10.15;100.00
25130;BME280;13308;50.860;13.664;2024-02-15T17:57:17;96985.16;;;10.00;100.00
25130;BME280;13308;50.860;13.664;2024-02-15T17:59:42;96976.44;;;10.05;100.00
25130;BME280;13308;50.860;13.664;2024-02-15T18:02:07;96980.06;;;9.99;100.00
25130;BME280;13308;50.860;13.664;2024-02-15T18:04:33;96984.75;;;9.98;100.00
25130;BME280;13308;50.860;13.664;2024-02-15T18:06:59;96978.91;;;9.96;100.00
25130;BME280;13308;50.860;13.664;2024-02-15T18:09:24;96975.69;;;10.01;100.00
25130;BME280;13308;50.860;13.664;2024-02-15T18:11:49;96979.25;;;9.98;100.00
25130;BME280;13308;50.860;13.664;2024-02-15T18:14:15;96980.13;;;9.92;100.00
25130;BME280;13308;50.860;13.664;2024-02-15T18:16:42;96975.88;;;9.84;100.00
25130;BME280;13308;50.860;13.664;2024-02-15T18:19:07;96973.16;;;9.80;100.00
25130;BME280;13308;50.860;13.664;2024-02-15T18:21:33;96972.72;;;9.85;100.00
25130;BME280;13308;50.860;13.664;2024-02-15T18:24:02;96966.09;;;9.79;100.00
25130;BME280;13308;50.860;13.664;2024-02-15T18:26:27;96963.47;;;9.65;100.00
25130;BME280;13308;50.860;13.664;2024-02-15T18:28:53;96967.47;;;9.61;100.00
25130;BME280;13308;50.860;13.664;2024-02-15T18:31:19;96965.13;;;9.59;100.00
25130;BME280;13308;50.860;13.664;2024-02-15T18:33:44;96960.44;;;9.53;100.00
25130;BME280;13308;50.860;13.664;2024-02-15T18:36:10;96971.50;;;9.49;100.00
25130;BME280;13308;50.860;13.664;2024-02-15T18:38:36;96960.13;;;9.47;100.00
25130;BME280;13308;50.860;13.664;2024-02-15T18:41:03;96955.81;;;9.46;100.00
25130;BME280;13308;50.860;13.664;2024-02-15T18:43:32;96946.34;;;9.47;100.00
25130;BME280;13308;50.860;13.664;2024-02-15T18:45:58;96947.94;;;9.45;100.00
25130;BME280;13308;50.860;13.664;2024-02-15T18:48:23;96947.56;;;9.46;100.00
25130;BME280;13308;50.860;13.664;2024-02-15T18:50:48;96953.78;;;9.50;100.00
25130;BME280;13308;50.860;13.664;2024-02-15T18:53:14;96954.91;;;9.56;100.00
25130;BME280;13308;50.860;13.664;2024-02-15T18:55:41;96954.03;;;9.66;100.00
25130;BME280;13308;50.860;13.664;2024-02-15T18:58:06;96952.06;;;9.67;100.00
25130;BME280;13308;50.860;13.664;2024-02-15T19:00:32;96939.22;;;9.53;100.00
25130;BME280;13308;50.860;13.664;2024-02-15T19:02:59;96937.69;;;9.45;100.00
25130;BME280;13308;50.860;13.664;2024-02-15T19:05:25;96926.03;;;9.34;100.00
25130;BME280;13308;50.860;13.664;2024-02-15T19:07:51;96924.97;;;9.21;100.00
25130;BME280;13308;50.860;13.664;2024-02-15T19:10:20;96923.16;;;9.04;100.00
25130;BME280;13308;50.860;13.664;2024-02-15T19:12:47;96923.59;;;8.99;100.00
25130;BME280;13308;50.860;13.664;2024-02-15T19:15:12;96916.53;;;8.98;100.00
25130;BME280;13308;50.860;13.664;2024-02-15T19:17:38;96919.25;;;9.02;100.00
25130;BME280;13308;50.860;13.664;2024-02-15T19:20:05;96918.09;;;8.99;100.00
